Time;durP1;ratioP1;P1;durP2;ratioP2;P2;SDS_P1;SDS_P2;PMS_P1;PMS_P2;Temp;Humidity;BMP_temperature;BMP_pressure;BME280_temperature;BME280_humidity;BME280_pressure;Samples;Min_cycle;Max_cycle;Signal;HPM_P1;HPM_P2
2022/07/18 00:00:14;;;;;;;2.95;1.75;;;13.00;99.90;;;;;;4994427;28;20194;-82
2022/07/18 00:02:40;;;;;;;4.47;2.25;;;13.00;99.90;;;;;;4978690;28;20178;-82
2022/07/18 00:05:06;;;;;;;3.70;1.70;;;12.90;99.90;;;;;;4994420;28;20623;-82
2022/07/18 00:07:32;;;;;;;2.25;1.98;;;12.90;99.90;;;;;;4995573;28;20197;-82
2022/07/18 00:09:57;;;;;;;2.80;1.90;;;12.90;99.90;;;;;;4994129;28;20251;-82
2022/07/18 00:12:23;;;;;;;6.43;2.65;;;12.90;99.90;;;;;;4994476;28;20627;-82
2022/07/18 00:14:49;;;;;;;2.67;1.85;;;12.90;99.90;;;;;;4995709;28;20232;-82
2022/07/18 00:17:14;;;;;;;2.53;1.70;;;12.90;99.90;;;;;;4995357;28;20180;-82
2022/07/18 00:19:40;;;;;;;2.08;1.67;;;12.90;99.90;;;;;;4994521;28;20628;-82
2022/07/18 00:22:06;;;;;;;3.38;1.90;;;12.90;99.90;;;;;;4977755;28;20185;-83
2022/07/18 00:24:32;;;;;;;2.15;1.40;;;12.90;99.90;;;;;;4994081;28;20213;-83
2022/07/18 00:26:58;;;;;;;1.45;1.25;;;12.90;99.90;;;;;;4994922;28;20177;-84
2022/07/18 00:29:24;;;;;;;1.73;1.45;;;12.90;99.90;;;;;;4993817;28;20241;-83
2022/07/18 00:31:50;;;;;;;1.88;1.60;;;12.90;99.90;;;;;;4995149;28;20548;-83
2022/07/18 00:34:15;;;;;;;1.60;1.30;;;12.80;99.90;;;;;;4994027;28;20689;-83
2022/07/18 00:36:41;;;;;;;2.13;1.48;;;12.80;99.90;;;;;;4977864;28;20270;-83
2022/07/18 00:39:06;;;;;;;1.70;1.38;;;12.80;99.90;;;;;;4995066;28;20185;-82
2022/07/18 00:41:32;;;;;;;2.17;1.17;;;12.80;99.90;;;;;;4995324;28;20181;-83
2022/07/18 00:43:58;;;;;;;1.85;1.45;;;12.80;99.90;;;;;;4993893;28;20186;-82
2022/07/18 00:46:25;;;;;;;2.75;1.90;;;12.70;99.90;;;;;;4993982;28;20212;-83
2022/07/18 00:48:52;;;;;;;2.35;1.67;;;12.80;99.90;;;;;;4993719;28;20232;-83
2022/07/18 00:51:18;;;;;;;1.77;1.33;;;12.70;99.90;;;;;;4994771;28;20182;-82
2022/07/18 00:53:45;;;;;;;2.05;1.50;;;12.80;99.90;;;;;;4993784;28;20181;-82
2022/07/18 00:56:11;;;;;;;1.77;1.50;;;12.80;99.90;;;;;;4993248;28;20209;-83
2022/07/18 00:58:37;;;;;;;1.27;1.10;;;12.80;99.90;;;;;;4994614;28;20276;-83
2022/07/18 01:03:47;;;;;;;1.63;1.38;;;12.90;99.90;;;;;;4993966;28;20212;-82
2022/07/18 01:06:13;;;;;;;1.83;1.20;;;12.80;99.90;;;;;;4994246;28;20201;-82
2022/07/18 01:08:42;;;;;;;1.90;1.23;;;12.80;99.90;;;;;;4993253;28;20268;-82
2022/07/18 01:11:09;;;;;;;1.58;1.35;;;12.80;99.90;;;;;;4994449;28;20205;-82
2022/07/18 01:13:34;;;;;;;2.38;1.30;;;12.80;99.90;;;;;;4993317;28;20625;-82
2022/07/18 01:16:00;;;;;;;2.20;1.60;;;12.80;99.90;;;;;;4993317;28;20186;-82
2022/07/18 01:18:26;;;;;;;2.30;1.30;;;12.80;99.90;;;;;;4976460;28;20190;-82
2022/07/18 01:20:51;;;;;;;1.45;1.35;;;12.80;99.90;;;;;;4993384;28;20221;-82
2022/07/18 01:23:17;;;;;;;1.98;1.30;;;12.80;99.90;;;;;;4994146;28;20616;-83
2022/07/18 01:25:43;;;;;;;2.15;1.45;;;12.70;99.90;;;;;;4994425;28;20174;-83
2022/07/18 01:28:09;;;;;;;1.30;1.20;;;12.70;99.90;;;;;;4993962;28;20228;-82
2022/07/18 01:30:35;;;;;;;1.48;1.25;;;12.70;99.90;;;;;;4994642;28;20240;-83
2022/07/18 01:33:02;;;;;;;1.67;1.35;;;12.70;99.90;;;;;;4993161;28;20230;-82
2022/07/18 01:35:29;;;;;;;2.17;1.52;;;12.70;99.90;;;;;;4992663;28;20174;-82
2022/07/18 01:37:59;;;;;;;3.65;1.40;;;12.70;99.90;;;;;;4993318;28;20189;-82
2022/07/18 01:40:25;;;;;;;1.48;1.30;;;12.70;99.90;;;;;;4993595;28;20224;-83
2022/07/18 01:42:51;;;;;;;3.55;1.25;;;12.70;99.90;;;;;;4992883;28;20177;-83
2022/07/18 01:45:18;;;;;;;1.25;1.15;;;12.60;99.90;;;;;;4993727;28;20180;-83
2022/07/18 01:47:43;;;;;;;2.47;1.30;;;12.70;99.90;;;;;;4993944;28;20174;-83
2022/07/18 01:50:10;;;;;;;1.45;1.23;;;13.30;99.90;;;;;;4992494;28;20626;-83
2022/07/18 01:52:36;;;;;;;2.15;1.50;;;12.70;99.90;;;;;;4994230;28;20236;-83
2022/07/18 01:55:03;;;;;;;2.17;1.10;;;12.70;99.90;;;;;;4976695;28;20174;-82
2022/07/18 01:57:29;;;;;;;1.10;1.00;;;12.70;99.90;;;;;;4993779;28;20189;-83
2022/07/18 01:59:55;;;;;;;2.30;1.35;;;12.70;99.90;;;;;;4993168;28;20531;-83
2022/07/18 02:02:20;;;;;;;2.53;1.30;;;12.70;99.90;;;;;;4993886;28;20189;-83
2022/07/18 02:05:02;;;;;;;1.85;1.48;;;13.40;99.90;;;;;;4976407;28;20211;-83
2022/07/18 02:07:33;;;;;;;1.48;1.30;;;12.70;99.90;;;;;;4993792;28;20202;-83
2022/07/18 02:10:00;;;;;;;2.25;1.63;;;12.70;99.90;;;;;;4992650;28;20209;-83
2022/07/18 02:12:25;;;;;;;1.25;1.13;;;12.80;99.90;;;;;;4994309;28;20215;-83
2022/07/18 02:14:52;;;;;;;1.63;1.52;;;12.70;99.90;;;;;;5000421;28;20263;-83
2022/07/18 02:17:19;;;;;;;1.60;1.50;;;12.70;99.90;;;;;;5000247;28;20185;-82
2022/07/18 02:19:44;;;;;;;2.92;1.20;;;12.70;99.90;;;;;;4999320;28;20635;-82
2022/07/18 02:22:10;;;;;;;1.00;0.98;;;12.70;99.90;;;;;;4998883;28;20236;-83
2022/07/18 02:24:36;;;;;;;1.27;1.17;;;12.70;99.90;;;;;;4998959;28;20280;-84
2022/07/18 02:27:02;;;;;;;1.65;1.30;;;12.60;99.90;;;;;;4982720;28;20702;-84
2022/07/18 02:29:28;;;;;;;1.10;1.00;;;12.70;99.90;;;;;;4999829;28;20331;-83
2022/07/18 02:31:54;;;;;;;1.48;1.10;;;12.60;99.90;;;;;;4998928;28;20277;-84
2022/07/18 02:34:19;;;;;;;2.35;1.23;;;12.60;99.90;;;;;;4998487;28;20276;-84
2022/07/18 02:36:45;;;;;;;1.23;1.08;;;12.70;99.90;;;;;;5000316;28;20189;-84
2022/07/18 02:39:10;;;;;;;1.73;1.42;;;12.70;99.90;;;;;;5000516;28;20673;-85
2022/07/18 02:41:36;;;;;;;1.77;1.40;;;12.70;99.90;;;;;;4982792;28;20524;-84
2022/07/18 02:44:03;;;;;;;1.27;1.00;;;12.60;99.90;;;;;;5000044;28;20182;-84
2022/07/18 02:46:28;;;;;;;1.67;1.48;;;12.60;99.90;;;;;;4999924;28;20273;-84
2022/07/18 02:48:54;;;;;;;1.23;1.08;;;12.60;99.90;;;;;;4989242;28;20229;-84
2022/07/18 02:51:20;;;;;;;1.45;1.35;;;12.60;99.90;;;;;;5000887;28;20213;-85
2022/07/18 02:53:45;;;;;;;2.10;1.20;;;12.60;99.90;;;;;;5022846;28;20208;-84
2022/07/18 02:56:11;;;;;;;1.27;1.17;;;12.60;99.90;;;;;;5033824;28;20192;-84
2022/07/18 02:58:37;;;;;;;2.00;1.52;;;12.60;99.90;;;;;;5029515;28;20227;-84
2022/07/18 03:01:03;;;;;;;1.67;1.20;;;12.50;99.90;;;;;;5020912;28;20704;-84
2022/07/18 03:03:28;;;;;;;2.30;2.10;;;12.60;99.90;;;;;;5017432;28;20185;-84
2022/07/18 03:05:54;;;;;;;2.00;1.60;;;12.50;99.90;;;;;;5018516;28;20185;-84
2022/07/18 03:08:20;;;;;;;1.52;1.42;;;12.60;99.90;;;;;;4998236;28;20174;-84
2022/07/18 03:10:45;;;;;;;1.98;1.00;;;12.60;99.90;;;;;;5010718;28;20190;-84
2022/07/18 03:13:12;;;;;;;1.35;1.13;;;12.70;99.90;;;;;;5011381;28;20203;-83
2022/07/18 03:15:38;;;;;;;1.52;1.30;;;12.60;99.90;;;;;;5014711;28;20185;-83
2022/07/18 03:18:04;;;;;;;1.88;1.42;;;12.60;99.90;;;;;;5017666;28;20177;-83
2022/07/18 03:20:30;;;;;;;1.58;1.48;;;12.60;99.90;;;;;;5008801;28;20253;-83
2022/07/18 03:22:55;;;;;;;1.70;1.20;;;12.70;99.90;;;;;;5017269;28;20219;-83
2022/07/18 03:25:21;;;;;;;1.17;1.08;;;12.70;99.90;;;;;;4981862;28;20180;-84
2022/07/18 03:27:46;;;;;;;2.00;1.73;;;12.70;99.90;;;;;;5010909;28;20568;-84
2022/07/18 03:30:12;;;;;;;1.70;1.42;;;12.70;99.90;;;;;;5008923;28;20245;-86
2022/07/18 03:32:38;;;;;;;1.50;1.23;;;12.80;99.90;;;;;;5008752;28;20187;-84
2022/07/18 03:35:04;;;;;;;1.35;1.25;;;12.90;99.90;;;;;;5013769;28;20192;-84
2022/07/18 03:37:30;;;;;;;1.52;1.15;;;12.80;99.90;;;;;;5006954;28;20186;-83
2022/07/18 03:39:55;;;;;;;2.05;1.40;;;12.90;99.90;;;;;;5004184;28;20231;-84
2022/07/18 03:42:21;;;;;;;1.77;1.10;;;12.90;99.90;;;;;;5004940;28;20591;-84
2022/07/18 03:44:46;;;;;;;1.58;1.48;;;12.90;99.90;;;;;;5003242;28;20182;-83
2022/07/18 03:47:12;;;;;;;1.48;1.38;;;13.00;99.90;;;;;;5010933;28;20666;-84
2022/07/18 03:49:38;;;;;;;1.42;1.13;;;13.10;99.90;;;;;;5014202;28;20768;-83
2022/07/18 03:52:04;;;;;;;1.92;1.45;;;13.10;99.90;;;;;;5013998;28;20280;-83
2022/07/18 03:54:29;;;;;;;4.63;1.42;;;13.20;99.90;;;;;;4997302;28;20181;-83
2022/07/18 03:56:55;;;;;;;1.55;1.38;;;13.20;99.90;;;;;;5013881;28;20236;-83
2022/07/18 03:59:21;;;;;;;1.08;1.00;;;13.30;99.90;;;;;;5013461;28;20185;-84
2022/07/18 04:01:46;;;;;;;1.38;1.20;;;13.30;99.90;;;;;;5030212;28;20224;-83
2022/07/18 04:04:12;;;;;;;2.10;1.60;;;13.40;99.90;;;;;;5013944;28;20235;-83
2022/07/18 04:06:37;;;;;;;3.90;1.20;;;13.50;99.90;;;;;;5013152;28;20676;-83
2022/07/18 04:09:03;;;;;;;2.30;1.50;;;13.50;99.90;;;;;;5014937;28;20212;-83
2022/07/18 04:11:29;;;;;;;1.92;1.63;;;13.60;99.90;;;;;;5015110;28;20186;-83
2022/07/18 04:13:55;;;;;;;1.52;1.17;;;13.60;99.90;;;;;;5020956;28;20204;-83
2022/07/18 04:16:21;;;;;;;3.03;1.13;;;13.70;99.90;;;;;;4997801;28;20542;-83
2022/07/18 04:18:47;;;;;;;1.70;1.23;;;13.70;99.90;;;;;;4997856;28;20340;-83
2022/07/18 04:21:13;;;;;;;2.30;1.48;;;13.70;99.90;;;;;;5015161;28;20268;-83
2022/07/18 04:23:39;;;;;;;2.17;1.27;;;13.70;99.90;;;;;;5014915;28;20215;-83
2022/07/18 04:26:05;;;;;;;4.35;2.10;;;13.80;99.90;;;;;;4997933;28;20183;-84
2022/07/18 04:28:31;;;;;;;2.92;1.73;;;13.90;99.90;;;;;;5014870;28;20241;-84
2022/07/18 04:30:57;;;;;;;1.05;1.05;;;13.90;99.90;;;;;;5013994;28;20189;-83
2022/07/18 04:33:22;;;;;;;2.35;1.00;;;14.00;99.90;;;;;;5013863;28;20193;-84
2022/07/18 04:35:49;;;;;;;2.35;1.40;;;14.10;99.90;;;;;;5014457;28;20173;-83
2022/07/18 04:38:14;;;;;;;2.58;1.60;;;14.10;99.90;;;;;;5013351;28;20189;-83
2022/07/18 04:40:40;;;;;;;2.58;1.77;;;14.20;99.90;;;;;;5028196;28;20169;-83
2022/07/18 04:43:06;;;;;;;1.60;1.50;;;14.20;99.90;;;;;;5012488;28;20189;-83
2022/07/18 04:45:32;;;;;;;2.03;1.48;;;14.30;99.90;;;;;;5013458;28;20177;-83
2022/07/18 04:47:59;;;;;;;3.58;1.95;;;14.40;99.90;;;;;;4995686;28;20208;-83
2022/07/18 04:50:25;;;;;;;6.18;1.88;;;14.40;99.90;;;;;;5013295;28;20209;-83
2022/07/18 04:52:51;;;;;;;2.80;1.75;;;14.40;99.90;;;;;;5012063;28;20185;-84
2022/07/18 04:55:19;;;;;;;1.88;1.13;;;14.50;99.90;;;;;;5011636;28;20177;-83
2022/07/18 04:57:45;;;;;;;3.15;2.20;;;14.60;99.90;;;;;;5010335;28;20254;-83
2022/07/18 05:00:13;;;;;;;2.55;1.40;;;14.60;99.90;;;;;;5001405;28;20555;-84
2022/07/18 05:02:41;;;;;;;3.20;1.77;;;14.70;99.90;;;;;;5014531;28;20185;-84
2022/07/18 05:05:07;;;;;;;4.90;2.33;;;14.70;99.90;;;;;;5018876;28;20181;-84
2022/07/18 05:07:33;;;;;;;3.88;2.78;;;14.90;99.90;;;;;;5019896;28;20207;-84
2022/07/18 05:09:58;;;;;;;5.55;2.30;;;15.00;99.90;;;;;;5019651;28;20201;-84
2022/07/18 05:12:24;;;;;;;6.35;1.83;;;15.00;99.90;;;;;;5020412;28;20264;-84
2022/07/18 05:14:50;;;;;;;2.75;2.03;;;15.10;99.90;;;;;;5021201;28;20184;-84
2022/07/18 05:17:17;;;;;;;3.63;2.58;;;15.10;99.90;;;;;;5054512;28;20209;-82
2022/07/18 05:19:42;;;;;;;15.73;2.72;;;15.10;99.90;;;;;;5021697;28;20256;-84
2022/07/18 05:22:08;;;;;;;5.25;2.63;;;15.20;99.90;;;;;;5038745;28;20165;-84
2022/07/18 05:24:33;;;;;;;2.25;1.85;;;15.30;99.90;;;;;;5028486;28;20769;-84
2022/07/18 05:26:59;;;;;;;4.57;2.65;;;15.40;99.90;;;;;;5024405;28;20193;-84
2022/07/18 05:29:25;;;;;;;2.85;2.28;;;15.50;99.90;;;;;;5012593;28;20235;-85
2022/07/18 05:31:50;;;;;;;3.72;2.30;;;15.50;99.90;;;;;;5034542;28;20169;-85
2022/07/18 05:34:16;;;;;;;3.85;2.65;;;15.50;99.90;;;;;;5037998;28;20189;-86
2022/07/18 05:36:41;;;;;;;3.05;2.63;;;15.60;99.90;;;;;;5030320;28;20181;-84
2022/07/18 05:39:09;;;;;;;5.20;2.53;;;15.70;99.90;;;;;;5018268;28;20276;-84
2022/07/18 05:41:34;;;;;;;5.47;2.50;;;15.80;99.90;;;;;;5015712;28;20653;-83
2022/07/18 05:44:00;;;;;;;1.92;1.50;;;15.90;99.90;;;;;;5011300;28;20181;-84
2022/07/18 05:46:26;;;;;;;3.28;1.98;;;16.10;99.90;;;;;;5011795;28;20634;-83
2022/07/18 05:48:51;;;;;;;1.63;1.42;;;16.20;99.90;;;;;;4999138;28;20210;-83
2022/07/18 05:51:18;;;;;;;1.95;1.55;;;16.30;99.90;;;;;;5013310;28;20178;-83
2022/07/18 05:53:44;;;;;;;2.17;1.63;;;16.50;99.90;;;;;;5013738;28;20170;-83
2022/07/18 05:56:10;;;;;;;1.73;1.20;;;16.70;99.90;;;;;;5012094;28;20181;-83
2022/07/18 05:58:36;;;;;;;4.13;1.27;;;16.80;99.90;;;;;;5012030;28;20177;-82
2022/07/18 06:01:01;;;;;;;2.15;1.40;;;17.00;99.90;;;;;;5010885;28;20260;-82
2022/07/18 06:03:27;;;;;;;3.70;1.88;;;17.10;99.90;;;;;;5011709;28;20184;-83
2022/07/18 06:05:52;;;;;;;1.92;1.30;;;17.20;99.90;;;;;;4993616;28;20288;-84
2022/07/18 06:08:18;;;;;;;1.20;0.90;;;17.30;99.90;;;;;;4994956;28;20632;-83
2022/07/18 06:10:44;;;;;;;1.55;1.15;;;17.40;99.90;;;;;;4993966;28;20247;-83
2022/07/18 06:13:09;;;;;;;2.40;1.30;;;17.50;99.90;;;;;;5004473;28;20256;-86
2022/07/18 06:15:35;;;;;;;1.50;1.00;;;17.60;99.90;;;;;;5004469;28;20205;-83
2022/07/18 06:18:01;;;;;;;1.17;1.08;;;17.80;99.90;;;;;;4985574;28;20265;-84
2022/07/18 06:20:26;;;;;;;4.55;1.45;;;17.90;99.90;;;;;;5002445;28;20650;-86
2022/07/18 06:22:52;;;;;;;1.20;1.10;;;17.90;99.90;;;;;;5001230;28;20205;-84
2022/07/18 06:25:18;;;;;;;1.30;1.20;;;17.90;99.90;;;;;;5002351;28;20627;-84
2022/07/18 06:27:43;;;;;;;2.17;1.48;;;18.00;99.90;;;;;;4985390;28;20182;-84
2022/07/18 06:30:10;;;;;;;2.47;1.42;;;18.10;99.90;;;;;;5002179;28;20587;-85
2022/07/18 06:32:37;;;;;;;1.77;1.17;;;18.20;99.90;;;;;;4999159;28;20196;-86
2022/07/18 06:35:03;;;;;;;1.70;1.20;;;18.30;99.90;;;;;;5003512;28;20235;-85
2022/07/18 06:37:29;;;;;;;4.28;1.25;;;18.30;99.90;;;;;;5003431;28;20177;-84
2022/07/18 06:39:54;;;;;;;2.97;1.05;;;18.50;99.90;;;;;;4999252;28;20185;-86
2022/07/18 06:42:20;;;;;;;1.13;1.00;;;18.50;99.90;;;;;;5001936;28;20185;-85
2022/07/18 06:44:46;;;;;;;2.10;1.38;;;18.70;99.90;;;;;;4983703;28;20185;-84
2022/07/18 06:47:11;;;;;;;1.58;1.00;;;18.80;99.90;;;;;;4983198;28;20673;-85
2022/07/18 06:49:37;;;;;;;1.10;1.00;;;18.90;99.90;;;;;;4985742;28;20300;-85
2022/07/18 06:52:03;;;;;;;1.83;1.00;;;19.00;99.90;;;;;;4983465;28;20186;-83
2022/07/18 06:54:28;;;;;;;1.10;1.00;;;19.00;99.90;;;;;;4984425;28;20203;-84
2022/07/18 06:56:55;;;;;;;1.10;0.90;;;19.00;99.90;;;;;;4996601;28;20523;-86
2022/07/18 06:59:21;;;;;;;1.60;0.90;;;19.00;99.90;;;;;;4994421;28;20207;-84
2022/07/18 07:01:47;;;;;;;1.13;1.00;;;19.00;99.90;;;;;;5013981;28;20200;-84
2022/07/18 07:04:12;;;;;;;1.35;0.90;;;19.00;99.90;;;;;;5018128;28;20177;-85
2022/07/18 07:06:38;;;;;;;1.58;1.00;;;19.00;99.90;;;;;;5016270;28;20646;-84
2022/07/18 07:09:05;;;;;;;1.00;0.70;;;19.10;99.90;;;;;;5016038;28;20209;-83
2022/07/18 07:11:31;;;;;;;0.98;0.80;;;19.10;99.90;;;;;;5015315;28;20215;-84
2022/07/18 07:13:58;;;;;;;0.85;0.73;;;19.10;99.90;;;;;;5014505;28;20268;-85
2022/07/18 07:16:24;;;;;;;0.60;0.60;;;19.20;99.90;;;;;;5014538;28;20264;-84
2022/07/18 07:18:49;;;;;;;1.60;1.00;;;19.20;99.90;;;;;;5014444;28;20268;-85
2022/07/18 07:21:15;;;;;;;1.25;0.90;;;19.30;99.90;;;;;;5015925;28;20201;-84
2022/07/18 07:23:41;;;;;;;1.92;1.17;;;19.40;99.90;;;;;;5014613;28;20622;-85
2022/07/18 07:26:07;;;;;;;1.15;0.85;;;19.40;99.90;;;;;;5014973;28;20609;-83
2022/07/18 07:28:33;;;;;;;0.73;0.73;;;19.40;99.90;;;;;;5015631;28;20260;-84
2022/07/18 07:30:58;;;;;;;2.28;1.65;;;19.50;99.90;;;;;;5031411;28;20542;-83
2022/07/18 07:33:24;;;;;;;2.83;1.23;;;19.50;99.90;;;;;;5015271;28;20272;-83
2022/07/18 07:35:50;;;;;;;1.92;1.05;;;19.60;99.90;;;;;;5016101;28;20185;-82
2022/07/18 07:38:19;;;;;;;3.40;1.10;;;19.70;99.90;;;;;;4998811;28;20185;-84
2022/07/18 07:40:47;;;;;;;2.40;1.10;;;19.70;99.90;;;;;;5030967;28;20181;-83
2022/07/18 07:43:15;;;;;;;1.50;1.02;;;19.70;99.90;;;;;;5018256;28;20269;-83
2022/07/18 07:45:42;;;;;;;2.28;0.85;;;19.70;99.90;;;;;;5017873;28;20665;-83
2022/07/18 07:48:08;;;;;;;1.75;1.05;;;19.80;99.90;;;;;;5018203;28;20197;-84
2022/07/18 07:50:34;;;;;;;2.10;1.20;;;19.70;99.90;;;;;;5018579;28;20205;-83
2022/07/18 07:53:00;;;;;;;4.82;1.77;;;19.60;99.90;;;;;;5014423;28;20181;-84
2022/07/18 07:55:28;;;;;;;4.68;1.88;;;19.50;99.90;;;;;;5015985;28;20180;-84
2022/07/18 07:57:53;;;;;;;1.55;1.00;;;19.50;99.90;;;;;;5015256;28;20181;-84
2022/07/18 08:00:19;;;;;;;1.35;0.80;;;19.60;99.90;;;;;;5015051;28;20247;-83
2022/07/18 08:02:57;;;;;;;1.83;1.02;;;19.70;99.90;;;;;;5015810;28;20220;-84
2022/07/18 08:05:23;;;;;;;1.23;0.88;;;19.90;99.90;;;;;;5031073;28;20176;-83
2022/07/18 08:07:49;;;;;;;1.10;0.95;;;20.10;99.90;;;;;;5030439;28;20186;-84
2022/07/18 08:10:15;;;;;;;0.93;0.88;;;20.10;99.90;;;;;;5013925;28;20221;-83
2022/07/18 08:12:41;;;;;;;2.97;0.98;;;19.90;99.70;;;;;;5030335;28;20205;-83
2022/07/18 08:15:07;;;;;;;1.02;0.82;;;19.90;99.90;;;;;;4997608;28;20173;-84
2022/07/18 08:17:33;;;;;;;1.42;1.00;;;19.90;99.90;;;;;;4997843;28;20196;-84
2022/07/18 08:19:59;;;;;;;0.85;0.80;;;20.10;99.90;;;;;;5013671;28;20193;-84
2022/07/18 08:22:24;;;;;;;2.85;0.90;;;20.20;99.40;;;;;;5015181;28;20184;-84
2022/07/18 08:24:50;;;;;;;1.77;1.00;;;20.20;99.90;;;;;;4997516;28;20177;-85
2022/07/18 08:27:16;;;;;;;1.85;1.05;;;20.30;99.40;;;;;;5015602;28;20220;-84
2022/07/18 08:29:41;;;;;;;1.50;1.00;;;20.50;99.90;;;;;;5013885;28;20299;-84
2022/07/18 08:32:08;;;;;;;2.38;0.90;;;20.60;99.00;;;;;;5015059;28;20196;-83
2022/07/18 08:34:34;;;;;;;1.40;0.80;;;20.60;98.10;;;;;;5013821;28;20228;-84
2022/07/18 08:37:00;;;;;;;2.08;1.35;;;20.30;97.30;;;;;;5015106;28;20165;-84
2022/07/18 08:39:25;;;;;;;1.27;0.90;;;20.10;98.40;;;;;;4997728;28;20188;-84
2022/07/18 08:41:51;;;;;;;0.98;0.80;;;20.10;98.30;;;;;;5013201;28;20181;-87
2022/07/18 08:44:18;;;;;;;0.80;0.70;;;20.30;98.80;;;;;;5014903;28;20252;-84
2022/07/18 08:46:49;;;;;;;0.85;0.70;;;20.50;98.40;;;;;;5014840;28;20177;-85
2022/07/18 08:49:15;;;;;;;1.13;1.00;;;20.50;97.70;;;;;;5013471;28;20217;-85
2022/07/18 08:51:43;;;;;;;1.05;0.75;;;20.60;97.80;;;;;;5030139;28;20629;-85
2022/07/18 08:54:09;;;;;;;1.95;0.88;;;20.40;98.60;;;;;;5014496;28;20189;-85
2022/07/18 08:56:35;;;;;;;0.68;0.68;;;20.30;98.00;;;;;;5029351;28;20177;-84
2022/07/18 08:59:03;;;;;;;1.20;1.10;;;20.50;97.50;;;;;;5029735;28;20644;-84
2022/07/18 09:01:30;;;;;;;2.10;0.70;;;20.60;99.40;;;;;;5013596;28;20182;-84
2022/07/18 09:06:44;;;;;;;1.42;1.08;;;20.90;97.60;;;;;;5014700;28;20183;-84
2022/07/18 09:09:12;;;;;;;2.22;0.90;;;20.90;97.40;;;;;;5014204;28;20205;-84
2022/07/18 09:11:55;;;;;;;0.93;0.88;;;21.00;97.60;;;;;;5015000;28;20174;-83
2022/07/18 09:14:50;;;;;;;1.65;1.13;;;21.10;97.50;;;;;;5014338;28;20162;-84
2022/07/18 09:17:28;;;;;;;1.98;1.00;;;21.20;97.30;;;;;;4997618;28;20300;-84
2022/07/18 09:20:05;;;;;;;1.02;0.98;;;21.10;97.20;;;;;;5013291;28;20189;-84
2022/07/18 09:22:33;;;;;;;2.35;1.67;;;21.20;96.50;;;;;;5014545;28;20244;-84
2022/07/18 09:25:08;;;;;;;0.80;0.80;;;21.10;95.30;;;;;;5014283;28;20192;-85
2022/07/18 09:27:37;;;;;;;1.10;0.82;;;21.10;95.60;;;;;;5013371;28;20177;-84
2022/07/18 09:30:12;;;;;;;0.68;0.68;;;20.90;96.30;;;;;;5012646;28;20264;-84
2022/07/18 09:32:40;;;;;;;1.63;1.08;;;20.80;96.10;;;;;;5014223;28;20211;-84
2022/07/18 09:35:15;;;;;;;1.75;1.13;;;20.80;97.80;;;;;;5014173;28;20193;-84
2022/07/18 09:37:51;;;;;;;1.45;0.98;;;21.00;98.60;;;;;;5014490;28;20237;-85
2022/07/18 09:40:19;;;;;;;1.00;0.80;;;21.20;97.40;;;;;;5013852;28;20179;-84
2022/07/18 09:42:55;;;;;;;1.67;1.10;;;21.30;97.00;;;;;;5029253;28;20192;-84
2022/07/18 09:45:26;;;;;;;0.70;0.70;;;21.20;96.40;;;;;;5014016;28;20545;-85
2022/07/18 09:48:00;;;;;;;2.25;0.93;;;21.10;96.60;;;;;;5016278;28;20294;-84
2022/07/18 09:50:28;;;;;;;1.73;1.05;;;21.20;96.30;;;;;;5029898;28;20217;-83
2022/07/18 09:53:01;;;;;;;3.65;1.10;;;21.40;97.60;;;;;;5031905;28;20204;-84
2022/07/18 09:55:26;;;;;;;2.13;1.40;;;21.50;95.00;;;;;;5030672;28;20187;-84
2022/07/18 09:58:14;;;;;;;1.67;1.13;;;21.40;95.00;;;;;;5029292;28;20177;-82
2022/07/18 10:00:40;;;;;;;1.73;1.27;;;21.60;93.80;;;;;;5017892;28;20188;-84
2022/07/18 10:03:07;;;;;;;1.45;1.20;;;21.80;94.00;;;;;;5013834;28;20173;-85
2022/07/18 10:05:35;;;;;;;2.42;1.10;;;22.10;94.30;;;;;;5029289;28;20188;-83
2022/07/18 10:08:03;;;;;;;1.58;1.27;;;22.10;90.70;;;;;;5012695;28;20204;-83
2022/07/18 10:10:30;;;;;;;0.65;0.65;;;21.90;90.00;;;;;;5012478;28;20275;-84
2022/07/18 10:12:58;;;;;;;1.08;0.90;;;22.00;90.20;;;;;;5013658;28;20177;-83
2022/07/18 10:15:27;;;;;;;1.58;0.93;;;22.20;90.00;;;;;;5013214;28;20177;-84
2022/07/18 10:17:54;;;;;;;1.70;1.08;;;22.10;84.40;;;;;;5013620;28;20260;-83
2022/07/18 10:20:26;;;;;;;1.38;0.85;;;22.20;85.20;;;;;;5013282;28;20181;-84
2022/07/18 10:22:57;;;;;;;1.00;0.88;;;22.20;85.30;;;;;;5014143;28;20165;-84
2022/07/18 10:25:24;;;;;;;0.80;0.80;;;22.20;85.10;;;;;;5013106;28;20169;-83
2022/07/18 10:28:04;;;;;;;0.77;0.77;;;22.10;84.70;;;;;;5013262;28;20181;-84
2022/07/18 10:30:37;;;;;;;1.17;0.70;;;22.20;86.10;;;;;;5012265;28;20267;-84
2022/07/18 10:33:23;;;;;;;1.33;0.80;;;22.20;85.90;;;;;;5012378;28;20541;-84
2022/07/18 10:36:03;;;;;;;6.40;1.20;;;22.00;83.90;;;;;;5017492;28;20185;-83
2022/07/18 10:38:29;;;;;;;0.80;0.80;;;22.10;83.40;;;;;;5017489;28;20188;-84
2022/07/18 10:41:03;;;;;;;0.90;0.75;;;22.10;81.30;;;;;;5016340;28;20186;-84
2022/07/18 10:43:31;;;;;;;1.55;0.85;;;22.30;85.90;;;;;;5017141;28;20177;-83
2022/07/18 10:46:01;;;;;;;1.60;1.00;;;22.50;84.50;;;;;;5016046;28;20209;-83
2022/07/18 10:48:33;;;;;;;0.88;0.88;;;22.20;82.40;;;;;;5015838;28;20256;-83
2022/07/18 10:51:10;;;;;;;0.95;0.68;;;22.20;83.00;;;;;;5017386;28;20213;-83
2022/07/18 10:53:54;;;;;;;5.07;1.10;;;22.50;82.70;;;;;;5017310;28;20177;-84
2022/07/18 10:56:26;;;;;;;1.02;0.77;;;22.50;82.10;;;;;;5017114;28;20259;-84
2022/07/18 10:58:51;;;;;;;1.50;0.90;;;22.40;84.90;;;;;;5017577;28;20216;-84
2022/07/18 11:01:17;;;;;;;2.10;1.17;;;22.40;82.70;;;;;;5016546;28;20276;-85
2022/07/18 11:03:43;;;;;;;1.63;0.95;;;22.50;80.70;;;;;;5021756;28;20188;-83
2022/07/18 11:06:09;;;;;;;1.20;0.90;;;22.60;80.20;;;;;;5017006;28;20192;-83
2022/07/18 11:08:35;;;;;;;0.88;0.68;;;22.60;82.70;;;;;;5017202;28;20260;-83
2022/07/18 11:11:06;;;;;;;3.53;0.80;;;22.70;82.10;;;;;;5015699;28;20213;-85
2022/07/18 11:13:40;;;;;;;1.23;1.13;;;22.80;81.20;;;;;;5017068;28;20181;-84
2022/07/18 11:16:25;;;;;;;1.92;1.48;;;22.90;81.50;;;;;;5021248;28;20162;-84
2022/07/18 11:18:51;;;;;;;0.82;0.80;;;23.10;81.50;;;;;;5021872;28;20645;-84
2022/07/18 11:21:31;;;;;;;1.85;0.90;;;23.10;80.20;;;;;;5020833;28;20177;-83
2022/07/18 11:24:02;;;;;;;1.45;0.98;;;23.10;80.20;;;;;;5033975;28;20180;-83
2022/07/18 11:26:29;;;;;;;1.42;1.00;;;23.00;78.80;;;;;;5040341;28;20185;-84
2022/07/18 11:29:09;;;;;;;0.70;0.63;;;23.10;79.30;;;;;;5056402;28;20233;-83
2022/07/18 11:31:56;;;;;;;1.92;0.90;;;23.00;80.00;;;;;;5040566;28;20173;-83
2022/07/18 11:34:24;;;;;;;1.80;0.98;;;22.80;80.50;;;;;;5024034;28;20231;-84
2022/07/18 11:36:49;;;;;;;2.63;1.08;;;22.70;79.90;;;;;;5023141;28;20173;-83
2022/07/18 11:39:30;;;;;;;1.00;0.82;;;22.70;81.40;;;;;;5038537;28;20173;-92
2022/07/18 11:41:57;;;;;;;1.15;0.95;;;22.90;77.90;;;;;;5040349;28;20172;-83
2022/07/18 11:44:28;;;;;;;1.10;0.98;;;22.80;80.10;;;;;;5056187;28;20165;-85
2022/07/18 11:47:11;;;;;;;3.28;1.30;;;23.00;80.90;;;;;;5021079;28;20182;-83
2022/07/18 11:49:38;;;;;;;1.02;0.93;;;22.90;81.30;;;;;;5016715;28;20193;-83
2022/07/18 11:52:05;;;;;;;1.98;1.30;;;23.10;82.30;;;;;;5016160;28;20556;-83
2022/07/18 11:54:32;;;;;;;0.80;0.80;;;23.30;81.40;;;;;;5016588;28;20506;-82
2022/07/18 11:57:00;;;;;;;1.05;0.95;;;23.40;80.80;;;;;;5016360;28;20189;-82
2022/07/18 11:59:38;;;;;;;2.53;1.00;;;23.30;80.00;;;;;;5015789;28;20227;-83
2022/07/18 12:02:04;;;;;;;1.23;1.02;;;23.30;81.40;;;;;;5017796;28;20183;-83
2022/07/18 12:04:30;;;;;;;2.05;1.00;;;23.30;83.00;;;;;;5016071;28;20181;-84
2022/07/18 12:07:18;;;;;;;1.15;0.90;;;23.30;81.90;;;;;;5032820;28;20598;-83
2022/07/18 12:09:45;;;;;;;1.70;1.10;;;23.10;83.10;;;;;;5017264;28;20205;-84
2022/07/18 12:12:12;;;;;;;3.28;1.30;;;23.10;83.70;;;;;;5016961;28;20192;-83
2022/07/18 12:14:38;;;;;;;1.30;1.10;;;23.20;85.90;;;;;;5015094;28;20208;-82
2022/07/18 12:17:05;;;;;;;1.35;1.10;;;23.40;82.20;;;;;;5015588;28;20197;-83
2022/07/18 12:19:39;;;;;;;2.47;1.40;;;23.40;83.80;;;;;;5013673;28;20207;-83
2022/07/18 12:22:10;;;;;;;3.25;1.55;;;23.60;83.10;;;;;;5013907;28;20231;-81
2022/07/18 12:24:39;;;;;;;2.63;1.23;;;23.60;82.70;;;;;;5030316;28;20227;-82
2022/07/18 12:27:18;;;;;;;1.98;1.30;;;23.50;83.30;;;;;;5013925;28;20672;-83
2022/07/18 12:30:04;;;;;;;2.47;1.10;;;23.60;83.80;;;;;;5029917;28;20240;-82
2022/07/18 12:32:58;;;;;;;1.65;1.25;;;23.40;84.10;;;;;;5014711;28;20219;-83
2022/07/18 12:35:25;;;;;;;1.27;1.13;;;23.50;85.80;;;;;;5005583;28;20189;-88
2022/07/18 12:38:00;;;;;;;1.98;1.15;;;23.60;84.00;;;;;;5014831;28;20180;-83
2022/07/18 12:40:47;;;;;;;2.92;1.10;;;23.40;82.90;;;;;;5014455;28;20186;-84
2022/07/18 12:43:27;;;;;;;1.10;0.98;;;23.20;85.70;;;;;;5029750;28;20173;-82
2022/07/18 12:45:53;;;;;;;1.90;1.10;;;23.10;87.00;;;;;;5013495;28;20533;-83
2022/07/18 12:48:19;;;;;;;1.55;1.23;;;23.20;85.10;;;;;;5010885;28;20240;-82
2022/07/18 12:50:45;;;;;;;1.73;1.13;;;23.40;85.20;;;;;;5012795;28;20224;-83
2022/07/18 12:53:12;;;;;;;4.00;1.10;;;23.40;85.70;;;;;;5009264;28;20178;-83
2022/07/18 12:55:39;;;;;;;1.20;0.95;;;23.30;83.10;;;;;;4994312;28;20182;-83